Time;durP1;ratioP1;P1;durP2;ratioP2;P2;SDS_P1;SDS_P2;PMS_P1;PMS_P2;Temp;Humidity;BMP_temperature;BMP_pressure;BME280_temperature;BME280_humidity;BME280_pressure;Samples;Min_cycle;Max_cycle;Signal;HPM_P1;HPM_P2
2023/01/28 00:02:23;;;;;;;35.97;5.30;;;;;;;22.82;52.00;100195.63;7310701;19;129745;-39
2023/01/28 00:04:49;;;;;;;33.67;4.80;;;;;;;22.70;51.35;100170.47;7310359;19;129701;-36
2023/01/28 00:07:14;;;;;;;56.47;6.90;;;;;;;22.78;51.68;100183.75;7309134;19;129554;-35
2023/01/28 00:09:40;;;;;;;54.90;7.10;;;;;;;22.77;51.60;100187.34;7310458;19;128921;-40
2023/01/28 00:12:05;;;;;;;34.23;4.80;;;;;;;22.80;51.98;100190.53;7314331;19;130277;-38
2023/01/28 00:14:31;;;;;;;13.82;3.15;;;;;;;22.78;52.59;100187.19;7311489;19;129321;-40
2023/01/28 00:16:56;;;;;;;27.27;4.37;;;;;;;22.86;51.82;100202.25;7312804;19;129672;-38
2023/01/28 00:19:22;;;;;;;27.50;4.45;;;;;;;22.88;52.63;100192.47;7311143;19;129838;-39
2023/01/28 00:21:47;;;;;;;21.53;3.70;;;;;;;22.94;53.22;100195.38;7312770;19;130198;-40
2023/01/28 00:24:13;;;;;;;28.88;4.75;;;;;;;22.92;53.98;100199.13;7310714;19;129738;-38
2023/01/28 00:26:38;;;;;;;34.83;4.80;;;;;;;22.91;52.57;100200.06;7312481;19;129145;-39
2023/01/28 00:29:03;;;;;;;38.67;5.37;;;;;;;22.87;53.92;100182.97;7312359;19;129168;-37
2023/01/28 00:31:29;;;;;;;20.90;3.92;;;;;;;23.04;52.81;100200.66;7313484;19;129130;-39
2023/01/28 00:33:56;;;;;;;34.60;4.80;;;;;;;23.02;53.39;100199.97;7312382;19;129666;-41
2023/01/28 00:36:23;;;;;;;33.10;4.53;;;;;;;22.98;53.42;100195.94;7307885;19;130761;-41
2023/01/28 00:38:54;;;;;;;28.05;4.13;;;;;;;23.00;54.50;100201.91;7314277;19;129243;-40
2023/01/28 00:41:22;;;;;;;22.20;4.03;;;;;;;23.05;53.53;100197.09;7313160;19;130814;-39
2023/01/28 00:43:48;;;;;;;40.53;5.63;;;;;;;22.91;51.15;100200.06;7311613;19;129853;-36
2023/01/28 00:46:15;;;;;;;39.58;5.43;;;;;;;22.75;51.70;100204.97;7308417;19;129253;-37
2023/01/28 00:48:41;;;;;;;28.83;4.60;;;;;;;22.78;51.28;100209.97;7313221;19;129189;-40
2023/01/28 00:51:09;;;;;;;26.98;4.10;;;;;;;22.89;50.93;100208.06;7311999;19;129555;-36
2023/01/28 00:53:37;;;;;;;27.17;4.35;;;;;;;23.04;50.31;100203.28;7307694;19;129860;-40
2023/01/28 00:56:03;;;;;;;48.17;5.55;;;;;;;23.22;49.98;100204.31;7307557;19;130240;-38
2023/01/28 00:58:30;;;;;;;26.30;3.83;;;;;;;23.38;49.96;100207.25;7313530;19;128982;-36
2023/01/28 01:00:55;;;;;;;31.53;4.77;;;;;;;23.60;49.54;100193.06;7311288;19;129429;-39
2023/01/28 01:03:20;;;;;;;22.13;3.30;;;;;;;23.67;48.87;100194.97;7312667;19;129494;-39
2023/01/28 01:05:46;;;;;;;32.07;4.77;;;;;;;23.87;48.22;100194.00;7307870;19;129825;-37
2023/01/28 01:08:11;;;;;;;26.90;4.45;;;;;;;23.92;48.62;100190.94;7312364;19;129143;-40
2023/01/28 01:10:37;;;;;;;22.85;3.78;;;;;;;23.94;48.36;100194.25;7310223;19;129841;-38
2023/01/28 01:13:04;;;;;;;60.28;7.47;;;;;;;23.95;48.54;100199.38;7309093;19;129231;-39
2023/01/28 01:15:30;;;;;;;;;;;;;;;23.86;48.34;100200.22;7308525;19;130890;-40
2023/01/28 01:17:56;;;;;;;23.65;3.78;;;;;;;23.79;48.38;100188.63;7310984;19;130509;-39
2023/01/28 01:20:27;;;;;;;20.93;3.30;;;;;;;23.71;48.36;100206.03;7310976;19;129109;-40
2023/01/28 01:22:53;;;;;;;23.63;3.65;;;;;;;23.65;49.11;100202.16;7310332;19;129393;-41
2023/01/28 01:25:19;;;;;;;49.27;5.87;;;;;;;23.56;48.93;100197.75;7308961;19;129463;-40
2023/01/28 01:27:47;;;;;;;19.15;3.35;;;;;;;23.47;49.38;100198.56;7311946;19;131139;-40
2023/01/28 01:30:14;;;;;;;28.88;4.35;;;;;;;23.42;50.08;100208.63;7310550;19;129676;-39
2023/01/28 01:32:40;;;;;;;;;;;;;;;23.32;50.17;100205.16;7309536;19;129355;-38
2023/01/28 01:35:07;;;;;;;39.20;4.65;;;;;;;23.31;50.62;100208.75;7309374;19;129459;-40
2023/01/28 01:37:35;;;;;;;24.23;3.45;;;;;;;23.23;50.13;100208.56;7310182;19;129109;-37
2023/01/28 01:40:03;;;;;;;23.23;3.35;;;;;;;23.14;50.51;100212.00;7311467;19;130801;-40
2023/01/28 01:42:30;;;;;;;27.00;3.72;;;;;;;23.09;50.61;100216.81;7310015;19;129411;-39
2023/01/28 01:45:06;;;;;;;38.85;4.50;;;;;;;23.02;50.87;100213.09;7308650;19;129552;-40
2023/01/28 01:47:46;;;;;;;39.08;5.32;;;;;;;22.86;50.67;100203.09;7309528;19;129802;-37
2023/01/28 01:50:28;;;;;;;33.05;4.35;;;;;;;22.89;51.56;100217.75;7306855;19;129594;-40
2023/01/28 01:52:56;;;;;;;26.63;3.53;;;;;;;22.83;51.14;100216.47;7311448;19;129321;-38
2023/01/28 01:55:24;;;;;;;60.25;7.35;;;;;;;22.77;51.89;100213.56;7305705;19;130681;-39
2023/01/28 01:57:54;;;;;;;27.63;3.88;;;;;;;22.72;51.50;100210.50;7309870;19;129610;-41
2023/01/28 02:00:20;;;;;;;46.92;5.47;;;;;;;22.69;51.75;100205.53;7310274;19;129416;-40
2023/01/28 02:02:48;;;;;;;23.53;3.67;;;;;;;22.62;51.69;100207.00;7308363;19;129370;-40
2023/01/28 02:05:15;;;;;;;28.48;4.03;;;;;;;22.62;52.30;100214.88;7308573;19;129220;-40
2023/01/28 02:07:43;;;;;;;35.65;4.60;;;;;;;22.60;52.01;100206.28;7308936;19;129304;-41
2023/01/28 02:10:10;;;;;;;26.30;3.72;;;;;;;22.56;51.90;100199.69;7309275;19;129142;-41
2023/01/28 02:12:39;;;;;;;26.77;3.83;;;;;;;22.51;52.08;100202.63;7310291;19;129437;-37
2023/01/28 02:15:30;;;;;;;28.23;4.05;;;;;;;22.56;54.81;100194.44;7307475;19;129584;-38
2023/01/28 02:17:56;;;;;;;28.92;3.88;;;;;;;22.66;52.90;100195.31;7309323;19;129570;-38
2023/01/28 02:20:41;;;;;;;32.20;4.17;;;;;;;22.71;53.93;100198.38;7309036;19;129385;-33
2023/01/28 02:23:14;;;;;;;27.13;3.55;;;;;;;22.72;54.83;100200.84;7307689;19;129250;-39
2023/01/28 02:26:09;;;;;;;47.35;6.03;;;;;;;22.71;52.19;100198.38;7305919;19;129736;-40
2023/01/28 02:28:49;;;;;;;17.85;3.22;;;;;;;22.52;52.19;100193.00;7309772;19;129390;-41
2023/01/28 02:31:24;;;;;;;54.42;6.45;;;;;;;22.62;51.99;100201.75;7307030;19;130770;-38
2023/01/28 02:34:07;;;;;;;46.92;5.10;;;;;;;22.76;51.39;100206.63;7308804;19;129252;-38
2023/01/28 02:36:47;;;;;;;36.85;4.65;;;;;;;22.93;51.31;100213.88;7306993;19;129450;-38
2023/01/28 02:39:19;;;;;;;48.15;5.38;;;;;;;23.00;50.44;100196.66;7309955;19;129328;-38
2023/01/28 02:41:56;;;;;;;32.03;4.45;;;;;;;23.27;50.07;100209.19;7309043;19;129969;-40
2023/01/28 02:44:21;;;;;;;18.10;2.90;;;;;;;23.50;49.21;100207.97;7309641;19;129766;-40
2023/01/28 02:49:37;;;;;;;35.28;4.50;;;;;;;23.74;48.95;100211.00;7308879;19;129127;-39
2023/01/28 02:52:17;;;;;;;33.58;4.18;;;;;;;23.82;49.14;100219.84;7308990;19;129714;-39
2023/01/28 02:54:51;;;;;;;44.83;5.20;;;;;;;23.80;48.39;100221.78;7308804;19;130301;-41
2023/01/28 02:57:42;;;;;;;36.03;4.30;;;;;;;23.64;49.40;100210.16;7309002;19;129671;-36
2023/01/28 03:00:18;;;;;;;35.92;4.20;;;;;;;23.65;49.11;100223.16;7308629;19;129112;-36
2023/01/28 03:02:49;;;;;;;30.50;3.67;;;;;;;23.58;49.10;100227.31;7308048;19;129788;-36
2023/01/28 03:05:24;;;;;;;16.88;3.05;;;;;;;23.55;49.92;100232.00;7306861;19;130295;-41
2023/01/28 03:07:51;;;;;;;20.85;2.97;;;;;;;23.45;49.36;100218.88;7309484;19;130429;-40
2023/01/28 03:10:20;;;;;;;34.97;4.47;;;;;;;23.37;50.06;100223.13;7308595;19;129287;-40
2023/01/28 03:38:40;;;;;;;20.02;2.83;;;;;;;22.61;52.06;100252.53;7307946;19;129470;-36
2023/01/28 03:41:08;;;;;;;15.38;2.72;;;;;;;22.58;52.42;100244.91;7307719;19;129834;-40
2023/01/28 03:43:34;;;;;;;39.47;4.57;;;;;;;22.43;52.31;100230.47;7305043;19;129529;-39
2023/01/28 03:46:00;;;;;;;24.53;3.10;;;;;;;22.41;51.95;100227.16;7303990;19;129641;-39
2023/01/28 03:48:27;;;;;;;24.40;3.33;;;;;;;22.44;52.40;100248.69;7307353;19;130907;-40
2023/01/28 03:50:54;;;;;;;13.80;2.33;;;;;;;22.40;52.66;100249.88;7304760;19;129677;-42
2023/01/28 03:53:20;;;;;;;36.08;4.45;;;;;;;22.38;52.57;100251.00;7307318;19;129249;-40
2023/01/28 03:55:48;;;;;;;16.93;2.57;;;;;;;22.37;52.39;100257.16;7309365;19;129531;-41
2023/01/28 03:58:14;;;;;;;38.75;4.85;;;;;;;22.34;53.16;100257.44;7313882;19;131391;-37
2023/01/28 04:00:42;;;;;;;25.13;3.45;;;;;;;22.42;52.77;100260.22;7311578;19;129671;-40
2023/01/28 04:03:15;;;;;;;36.60;4.72;;;;;;;22.53;52.31;100266.25;7311543;19;129019;-39
2023/01/28 04:05:56;;;;;;;30.75;3.60;;;;;;;22.67;51.39;100259.84;7311164;19;130468;-39
2023/01/28 04:08:22;;;;;;;28.38;3.42;;;;;;;22.90;51.52;100266.59;7314163;19;130589;-38
2023/01/28 04:10:48;;;;;;;23.65;3.28;;;;;;;23.09;51.03;100262.25;7313938;19;130234;-39
2023/01/28 04:13:13;;;;;;;33.67;3.67;;;;;;;23.27;49.67;100265.06;7313990;19;129248;-37
2023/01/28 04:15:38;;;;;;;35.23;4.23;;;;;;;23.39;49.91;100269.25;7311188;19;129261;-39
2023/01/28 04:18:04;;;;;;;22.43;3.23;;;;;;;23.57;49.67;100262.38;7314446;19;130122;-37
2023/01/28 04:20:29;;;;;;;28.57;3.87;;;;;;;23.67;48.57;100263.22;7310364;19;129870;-38
2023/01/28 04:22:55;;;;;;;29.70;3.40;;;;;;;23.79;48.76;100272.63;7312054;19;129064;-40
2023/01/28 04:25:20;;;;;;;61.03;6.87;;;;;;;23.74;48.66;100274.84;7310135;19;129584;-36
2023/01/28 04:27:45;;;;;;;27.95;3.17;;;;;;;23.66;49.26;100277.34;7314061;19;129196;-38
2023/01/28 04:30:11;;;;;;;30.80;4.27;;;;;;;23.62;49.59;100267.25;7312898;19;129339;-39
2023/01/28 04:32:36;;;;;;;30.27;3.60;;;;;;;23.45;49.05;100246.91;7313168;19;130893;-37
2023/01/28 04:35:02;;;;;;;52.90;5.67;;;;;;;23.52;49.13;100264.59;7311351;19;129268;-38
2023/01/28 04:37:27;;;;;;;43.78;5.03;;;;;;;23.68;49.23;100259.66;7309286;19;129554;-37
2023/01/28 04:39:52;;;;;;;19.52;2.72;;;;;;;24.04;47.62;100266.88;7310702;19;129190;-39
2023/01/28 04:42:18;;;;;;;46.13;5.17;;;;;;;24.48;47.12;100272.50;7310218;19;129244;-40
2023/01/28 04:44:43;;;;;;;42.63;4.67;;;;;;;24.90;45.51;100269.34;7309865;19;129346;-38
2023/01/28 04:47:09;;;;;;;63.87;7.07;;;;;;;25.22;45.26;100267.09;7308982;19;129460;-40
2023/01/28 04:49:34;;;;;;;16.47;2.37;;;;;;;25.46;44.83;100271.84;7311591;19;129312;-41
2023/01/28 04:51:59;;;;;;;28.93;3.33;;;;;;;25.61;44.14;100271.19;7312397;19;129267;-41
2023/01/28 04:54:25;;;;;;;31.85;4.00;;;;;;;25.69;44.18;100275.72;7307332;19;129890;-39
2023/01/28 04:56:50;;;;;;;28.30;3.40;;;;;;;25.68;44.42;100276.69;7310971;19;131696;-40
2023/01/28 04:59:15;;;;;;;51.45;6.20;;;;;;;25.78;44.13;100289.78;7310541;19;129397;-39
2023/01/28 05:01:41;;;;;;;43.83;4.37;;;;;;;25.83;43.76;100282.28;7310855;19;128972;-36
2023/01/28 05:04:06;;;;;;;23.47;2.87;;;;;;;25.88;43.76;100286.13;7313116;19;130053;-37
2023/01/28 05:06:32;;;;;;;37.07;4.40;;;;;;;25.93;43.66;100291.75;7304337;19;130322;-38
2023/01/28 05:08:57;;;;;;;32.57;3.73;;;;;;;25.99;43.20;100288.50;7310864;19;130914;-39
2023/01/28 05:11:23;;;;;;;52.50;5.23;;;;;;;25.83;44.04;100277.84;7308326;19;131054;-40
2023/01/28 05:13:49;;;;;;;25.83;3.70;;;;;;;25.94;43.54;100305.75;7311130;19;129072;-38
2023/01/28 05:16:14;;;;;;;45.33;4.85;;;;;;;25.98;43.28;100297.38;7306429;19;129572;-39
2023/01/28 05:18:40;;;;;;;31.13;3.83;;;;;;;25.98;44.18;100291.31;7311526;19;130097;-39
2023/01/28 05:21:05;;;;;;;36.30;4.17;;;;;;;25.98;43.45;100275.50;7308664;19;130144;-40
2023/01/28 05:23:30;;;;;;;34.72;4.30;;;;;;;25.99;43.59;100299.06;7308619;19;129554;-40
2023/01/28 05:25:56;;;;;;;18.45;2.13;;;;;;;25.91;43.38;100290.25;7308070;19;131145;-37
2023/01/28 05:28:21;;;;;;;35.45;3.70;;;;;;;26.03;43.45;100316.25;7310205;19;129697;-39
2023/01/28 05:30:47;;;;;;;37.13;4.23;;;;;;;26.06;43.50;100308.06;7309434;19;129981;-38
2023/01/28 05:33:12;;;;;;;44.10;5.23;;;;;;;26.03;43.73;100305.69;7311280;19;129420;-40
2023/01/28 05:35:37;;;;;;;21.60;2.67;;;;;;;26.03;44.06;100308.34;7307067;19;129213;-40
2023/01/28 05:38:03;;;;;;;35.87;4.33;;;;;;;26.02;43.63;100319.88;7311172;19;129266;-36
2023/01/28 05:40:28;;;;;;;30.70;3.40;;;;;;;26.01;43.69;100320.84;7310436;19;129452;-37
2023/01/28 05:42:54;;;;;;;17.43;2.67;;;;;;;26.04;43.63;100317.91;7310536;19;130802;-40
2023/01/28 05:45:19;;;;;;;32.93;4.13;;;;;;;26.12;43.20;100323.25;7309059;19;129179;-38
2023/01/28 05:47:44;;;;;;;34.97;3.53;;;;;;;26.03;43.28;100321.50;7310116;19;129149;-38
2023/01/28 05:50:12;;;;;;;25.50;3.07;;;;;;;26.05;43.55;100324.03;7312727;19;129686;-39
2023/01/28 05:52:38;;;;;;;28.73;3.55;;;;;;;26.04;43.34;100333.72;7309452;19;131737;-40
2023/01/28 05:55:03;;;;;;;21.07;2.63;;;;;;;25.95;43.33;100334.56;7304371;19;130716;-37
2023/01/28 05:57:29;;;;;;;43.13;4.87;;;;;;;25.84;43.71;100342.72;7306773;19;129657;-39
2023/01/28 05:59:54;;;;;;;23.00;2.67;;;;;;;25.72;44.35;100345.72;7308383;19;129368;-38
2023/01/28 06:02:19;;;;;;;25.08;2.90;;;;;;;25.45;44.52;100331.56;7306610;19;130327;-39
2023/01/28 06:04:45;;;;;;;30.97;3.53;;;;;;;25.40;44.78;100343.53;7309424;19;129542;-39
2023/01/28 06:07:12;;;;;;;44.60;5.00;;;;;;;25.33;44.91;100345.03;7307212;19;131647;-38
2023/01/28 06:09:38;;;;;;;20.52;2.85;;;;;;;25.33;45.04;100351.16;7308955;19;128802;-41
2023/01/28 06:12:04;;;;;;;24.30;2.88;;;;;;;25.37;45.50;100355.16;7309746;19;129248;-40
2023/01/28 06:14:29;;;;;;;26.47;3.17;;;;;;;25.34;45.30;100370.38;7307013;19;130962;-39
2023/01/28 06:16:54;;;;;;;40.90;4.27;;;;;;;25.39;45.41;100360.28;7307951;19;129760;-38
2023/01/28 06:19:20;;;;;;;16.50;2.25;;;;;;;25.42;45.01;100370.53;7307650;19;129964;-39
2023/01/28 06:21:45;;;;;;;37.85;4.03;;;;;;;25.50;44.73;100365.38;7308678;19;130106;-39
2023/01/28 06:24:11;;;;;;;43.13;4.73;;;;;;;25.47;45.28;100379.66;7306883;19;130106;-36
2023/01/28 06:26:36;;;;;;;25.83;3.30;;;;;;;25.61;45.18;100378.34;7309141;19;131000;-38
2023/01/28 06:29:02;;;;;;;28.77;3.83;;;;;;;25.55;44.60;100382.38;7304737;19;130781;-38
2023/01/28 06:31:27;;;;;;;34.60;3.97;;;;;;;25.58;44.25;100370.75;7306415;19;131071;-41
2023/01/28 06:33:52;;;;;;;30.77;3.37;;;;;;;25.63;44.82;100393.00;7307175;19;129589;-40
2023/01/28 06:36:18;;;;;;;27.83;3.42;;;;;;;25.66;44.15;100402.44;7305859;19;129209;-40
2023/01/28 06:38:43;;;;;;;24.60;2.93;;;;;;;25.76;43.95;100397.94;7306210;19;130344;-38
2023/01/28 06:41:08;;;;;;;30.43;3.63;;;;;;;25.77;44.11;100407.50;7309346;19;130026;-40
2023/01/28 06:43:34;;;;;;;35.43;3.97;;;;;;;25.82;44.08;100402.63;7305180;19;130145;-39
2023/01/28 06:45:59;;;;;;;21.43;2.47;;;;;;;25.74;44.30;100399.91;7305731;19;129315;-39
2023/01/28 06:48:25;;;;;;;39.77;4.30;;;;;;;25.91;43.70;100407.00;7305826;19;128895;-38
2023/01/28 06:50:51;;;;;;;25.33;3.13;;;;;;;25.85;43.75;100385.69;7307250;19;129860;-37
2023/01/28 06:53:17;;;;;;;41.83;4.33;;;;;;;25.91;43.87;100409.66;7308653;19;130658;-40
2023/01/28 06:55:42;;;;;;;29.67;3.30;;;;;;;25.76;44.55;100408.47;7302854;19;130010;-37
2023/01/28 06:58:08;;;;;;;27.83;3.20;;;;;;;25.68;44.61;100405.75;7307814;19;130113;-39
2023/01/28 07:00:33;;;;;;;21.00;2.37;;;;;;;25.50;45.11;100410.13;7303603;19;128916;-37
2023/01/28 07:02:58;;;;;;;36.47;3.90;;;;;;;25.37;45.12;100422.81;7304334;19;129592;-40
2023/01/28 07:05:24;;;;;;;82.95;9.52;;;;;;;25.39;45.06;100415.56;7296838;19;130177;-39
2023/01/28 07:07:50;;;;;;;39.80;4.63;;;;;;;25.38;45.14;100427.94;7298767;19;129739;-40
2023/01/28 07:10:15;;;;;;;34.07;3.70;;;;;;;25.36;45.68;100423.75;7303745;19;131823;-38
2023/01/28 07:12:41;;;;;;;19.50;2.83;;;;;;;25.40;44.67;100419.88;7307443;19;129621;-38
2023/01/28 07:15:09;;;;;;;36.20;4.27;;;;;;;25.42;45.38;100418.75;7302267;19;131019;-37
2023/01/28 07:17:35;;;;;;;36.75;4.22;;;;;;;25.44;45.37;100418.59;7304581;19;129374;-39
2023/01/28 07:20:00;;;;;;;34.87;3.77;;;;;;;25.51;45.21;100420.53;7306543;19;130250;-40
2023/01/28 07:22:25;;;;;;;28.57;3.33;;;;;;;25.51;44.56;100403.88;7305145;19;129453;-40
2023/01/28 07:24:51;;;;;;;29.83;3.30;;;;;;;25.49;44.21;100427.72;7295723;19;131402;-39
2023/01/28 07:27:16;;;;;;;50.53;5.83;;;;;;;25.14;40.20;100401.22;7301226;19;129633;-39
2023/01/28 07:29:42;;;;;;;85.37;8.27;;;;;;;25.32;41.33;100428.44;7300406;19;130479;-41
2023/01/28 07:32:07;;;;;;;51.20;5.37;;;;;;;25.54;42.01;100429.91;7309217;19;129786;-36
2023/01/28 07:34:33;;;;;;;30.57;3.53;;;;;;;25.62;41.78;100427.38;7309498;19;129726;-37
2023/01/28 07:36:58;;;;;;;63.80;6.73;;;;;;;25.70;42.00;100430.97;7306295;19;130815;-41
2023/01/28 07:39:23;;;;;;;33.53;3.57;;;;;;;25.78;42.44;100430.25;7311972;19;129125;-38
2023/01/28 07:41:49;;;;;;;38.97;3.80;;;;;;;25.88;42.60;100428.38;7310996;19;129185;-35
2023/01/28 07:44:14;;;;;;;38.20;4.43;;;;;;;25.87;42.84;100426.72;7310292;19;130414;-39
2023/01/28 07:46:39;;;;;;;36.55;3.80;;;;;;;25.87;42.92;100426.72;7310840;19;129195;-37
2023/01/28 07:49:05;;;;;;;40.70;4.17;;;;;;;25.97;42.69;100426.66;7310887;19;129719;-39
2023/01/28 07:51:30;;;;;;;40.87;4.50;;;;;;;25.99;42.70;100422.91;7312057;19;129222;-39
2023/01/28 07:53:56;;;;;;;38.20;4.10;;;;;;;25.88;42.51;100423.13;7310438;19;131212;-40
2023/01/28 07:56:21;;;;;;;30.83;3.33;;;;;;;25.81;42.82;100437.00;7310645;19;129923;-42
2023/01/28 07:58:49;;;;;;;36.73;3.60;;;;;;;25.68;43.74;100437.38;7313973;19;128943;-38
2023/01/28 08:01:15;;;;;;;29.33;3.30;;;;;;;25.45;43.90;100426.34;7314008;19;129357;-39
2023/01/28 08:03:40;;;;;;;20.87;2.77;;;;;;;25.42;44.45;100442.44;7312161;19;129753;-39
2023/01/28 08:06:05;;;;;;;34.80;4.07;;;;;;;25.24;44.66;100424.88;7305355;19;129933;-38
2023/01/28 08:08:31;;;;;;;31.10;3.33;;;;;;;25.32;44.33;100438.97;7312576;19;130465;-39
2023/01/28 08:10:56;;;;;;;38.60;4.07;;;;;;;25.40;44.54;100448.84;7308342;19;129698;-37
2023/01/28 08:13:22;;;;;;;23.48;2.75;;;;;;;25.43;44.70;100443.28;7311716;19;129687;-41
2023/01/28 08:15:47;;;;;;;35.57;3.57;;;;;;;25.45;43.95;100443.97;7306122;19;130213;-39
2023/01/28 08:18:15;;;;;;;55.33;5.30;;;;;;;25.42;44.30;100415.31;7312352;19;129498;-38
2023/01/28 08:20:43;;;;;;;35.05;4.15;;;;;;;25.52;44.14;100442.41;7311119;19;129968;-40
2023/01/28 08:23:14;;;;;;;33.53;3.63;;;;;;;25.64;44.08;100446.50;7311090;19;129404;-39
2023/01/28 08:25:39;;;;;;;48.90;4.50;;;;;;;25.65;43.59;100437.66;7302684;19;129593;-40
2023/01/28 08:28:06;;;;;;;30.67;3.47;;;;;;;25.71;43.80;100439.69;7312916;19;129856;-38
2023/01/28 08:30:32;;;;;;;12.98;1.65;;;;;;;25.75;43.66;100438.41;7312908;19;129979;-35
2023/01/28 08:32:59;;;;;;;26.80;3.07;;;;;;;25.78;44.02;100438.16;7312212;19;131428;-38
2023/01/28 08:35:26;;;;;;;89.60;9.77;;;;;;;25.83;43.76;100450.88;7307834;19;129313;-39
2023/01/28 08:37:51;;;;;;;22.38;2.85;;;;;;;25.90;43.22;100447.50;7313480;19;129937;-40
2023/01/28 08:40:16;;;;;;;32.73;3.40;;;;;;;25.87;43.13;100447.78;7302635;19;130809;-37
2023/01/28 08:42:53;;;;;;;31.13;3.40;;;;;;;25.90;42.97;100452.75;7306523;19;130911;-36
2023/01/28 08:45:24;;;;;;;46.03;5.18;;;;;;;25.88;41.64;100449.47;7309010;19;129819;-37
2023/01/28 08:48:00;;;;;;;44.90;4.57;;;;;;;25.92;42.18;100452.63;7311504;19;129588;-36
2023/01/28 08:50:28;;;;;;;22.93;2.83;;;;;;;25.91;41.78;100453.59;7311215;19;130910;-41
2023/01/28 08:52:56;;;;;;;21.73;2.78;;;;;;;25.95;42.73;100454.97;7313459;19;129916;-39
2023/01/28 08:55:21;;;;;;;66.75;6.70;;;;;;;25.84;42.62;100455.16;7300705;19;130148;-35
2023/01/28 08:57:47;;;;;;;25.63;2.77;;;;;;;25.73;42.58;100461.47;7311385;19;129507;-39
2023/01/28 09:00:13;;;;;;;50.70;5.90;;;;;;;25.68;43.53;100463.69;7304459;19;130124;-37
2023/01/28 09:02:38;;;;;;;14.03;2.10;;;;;;;25.40;43.15;100454.09;7310893;19;129590;-37
2023/01/28 09:05:05;;;;;;;31.97;3.80;;;;;;;25.47;43.41;100476.22;7308874;19;128974;-38
2023/01/28 09:07:31;;;;;;;47.55;5.18;;;;;;;25.43;44.00;100478.34;7310011;19;129552;-38
2023/01/28 09:09:56;;;;;;;23.83;3.17;;;;;;;25.46;44.17;100479.84;7311769;19;129620;-37
2023/01/28 09:12:22;;;;;;;26.97;3.20;;;;;;;25.45;43.74;100483.47;7311311;19;129696;-40
2023/01/28 09:14:47;;;;;;;43.37;4.83;;;;;;;25.51;43.82;100482.88;7309666;19;129134;-38
2023/01/28 09:17:13;;;;;;;38.73;4.33;;;;;;;25.43;43.69;100459.06;7309810;19;129061;-39
2023/01/28 09:19:38;;;;;;;18.27;2.67;;;;;;;25.65;43.60;100480.59;7307125;19;129585;-38
2023/01/28 09:22:04;;;;;;;36.73;3.77;;;;;;;25.65;43.37;100483.25;7309727;19;131208;-38
2023/01/28 09:24:29;;;;;;;25.17;3.20;;;;;;;25.72;42.78;100480.84;7308747;19;129310;-38
2023/01/28 09:26:55;;;;;;;35.87;3.63;;;;;;;25.73;43.04;100478.06;7304447;19;130274;-39
2023/01/28 09:29:20;;;;;;;37.87;4.53;;;;;;;25.77;43.18;100489.16;7309274;19;129299;-38
2023/01/28 09:31:46;;;;;;;31.40;3.73;;;;;;;25.62;43.63;100490.59;7308511;19;129559;-39
2023/01/28 09:34:11;;;;;;;49.40;4.73;;;;;;;25.48;43.95;100496.34;7306431;19;129850;-38
2023/01/28 09:36:36;;;;;;;46.20;4.73;;;;;;;25.45;43.78;100492.19;7307656;19;130035;-39
2023/01/28 09:39:02;;;;;;;28.60;3.77;;;;;;;25.25;43.82;100490.56;7309462;19;130752;-41
2023/01/28 09:41:49;;;;;;;30.80;3.43;;;;;;;25.18;44.59;100492.09;7309382;19;131109;-39
2023/01/28 09:44:37;;;;;;;42.92;4.25;;;;;;;25.25;44.39;100492.34;7307907;19;129220;-39
2023/01/28 09:47:07;;;;;;;50.28;5.20;;;;;;;25.23;44.18;100494.28;7306605;19;129241;-39
2023/01/28 09:49:47;;;;;;;31.45;3.40;;;;;;;25.25;44.27;100498.44;7306257;19;129706;-36
2023/01/28 09:52:16;;;;;;;44.55;4.65;;;;;;;25.26;43.78;100492.19;7306977;19;130653;-39
2023/01/28 09:54:51;;;;;;;35.75;3.72;;;;;;;25.39;43.86;100502.44;7310263;19;129962;-36
2023/01/28 09:57:25;;;;;;;34.90;4.43;;;;;;;25.46;43.56;100498.28;7304831;19;130142;-40
2023/01/28 09:59:50;;;;;;;53.90;5.97;;;;;;;25.50;44.00;100497.03;7306803;19;130390;-42
2023/01/28 10:02:51;;;;;;;29.57;3.43;;;;;;;25.51;43.76;100498.69;7307532;19;130985;-37
2023/01/28 10:05:25;;;;;;;101.25;10.00;;;;;;;25.60;43.94;100493.38;7302266;19;129838;-42
2023/01/28 10:08:09;;;;;;;59.10;6.10;;;;;;;25.64;43.94;100504.47;7307448;19;130332;-36
2023/01/28 10:10:49;;;;;;;20.55;2.58;;;;;;;25.66;44.23;100506.00;7310232;19;129976;-37
2023/01/28 10:13:48;;;;;;;85.53;8.95;;;;;;;25.63;44.21;100508.06;7305606;19;130432;-35
2023/01/28 10:16:16;;;;;;;;;;;;;;;25.70;44.52;100503.91;7304696;19;129314;-37
2023/01/28 10:18:44;;;;;;;;;;;;;;;25.44;43.19;100503.69;7309360;19;130761;-38
2023/01/28 10:21:11;;;;;;;;;;;;;;;25.33;43.43;100501.19;7309698;19;129533;-37
2023/01/28 10:23:48;;;;;;;36.30;4.17;;;;;;;25.30;44.22;100503.28;7307394;19;129477;-36
2023/01/28 10:26:23;;;;;;;30.20;3.67;;;;;;;25.27;44.77;100511.47;7305293;19;129082;-37
2023/01/28 10:28:53;;;;;;;27.00;3.53;;;;;;;25.25;44.88;100516.88;7309704;19;129729;-35
2023/01/28 10:31:21;;;;;;;43.97;4.90;;;;;;;25.25;44.89;100518.66;7305905;19;131214;-37
2023/01/28 10:33:46;;;;;;;30.38;3.40;;;;;;;25.25;44.76;100523.94;7309537;19;129701;-37
2023/01/28 10:36:11;;;;;;;66.77;7.37;;;;;;;25.20;44.46;100507.72;7303118;19;129564;-42
2023/01/28 10:38:37;;;;;;;37.10;4.50;;;;;;;25.32;44.79;100535.56;7304668;19;129138;-36
2023/01/28 10:41:04;;;;;;;31.63;3.80;;;;;;;25.35;44.46;100516.88;7307602;19;129686;-40
2023/01/28 10:43:32;;;;;;;23.73;2.75;;;;;;;25.39;44.05;100526.13;7306547;19;129393;-37
2023/01/28 10:46:04;;;;;;;42.72;4.68;;;;;;;25.41;44.12;100524.19;7304566;19;129083;-38
2023/01/28 10:48:33;;;;;;;47.55;4.78;;;;;;;25.50;44.72;100533.91;7306380;19;130093;-41
2023/01/28 10:51:03;;;;;;;19.48;2.13;;;;;;;25.54;43.82;100530.00;7308540;19;129164;-39
2023/01/28 10:53:42;;;;;;;49.45;5.03;;;;;;;25.53;44.24;100528.34;7302848;19;130085;-39
2023/01/28 10:56:22;;;;;;;25.30;3.05;;;;;;;25.60;43.75;100534.72;7303320;19;129425;-36
2023/01/28 10:59:19;;;;;;;35.60;4.00;;;;;;;25.68;44.06;100537.44;7305579;19;130724;-39
2023/01/28 11:01:48;;;;;;;40.15;4.25;;;;;;;25.69;43.32;100539.94;7306120;19;130377;-36
2023/01/28 11:04:24;;;;;;;15.48;2.30;;;;;;;25.74;43.58;100531.59;7308358;19;129203;-38
2023/01/28 11:07:01;;;;;;;24.27;2.95;;;;;;;25.76;43.70;100532.28;7311165;19;129148;-37
2023/01/28 11:09:26;;;;;;;;;;;;;;;25.66;43.29;100523.59;7310371;19;129837;-37
2023/01/28 11:11:52;;;;;;;31.33;3.30;;;;;;;25.73;42.85;100524.69;7314376;19;130894;-39
2023/01/28 11:14:24;;;;;;;55.17;5.80;;;;;;;25.84;42.95;100529.75;7311710;19;131869;-38
2023/01/28 11:16:52;;;;;;;33.58;3.72;;;;;;;25.83;43.04;100520.22;7313339;19;129556;-38
2023/01/28 11:19:20;;;;;;;26.30;3.35;;;;;;;25.88;43.06;100525.03;7311366;19;129820;-35
2023/01/28 11:21:52;;;;;;;41.42;4.78;;;;;;;25.82;42.74;100501.91;7313508;19;129302;-39
2023/01/28 11:24:22;;;;;;;41.85;4.45;;;;;;;25.94;43.08;100522.66;7307188;19;131517;-36
2023/01/28 11:26:51;;;;;;;35.20;3.55;;;;;;;25.89;42.75;100498.53;7313559;19;129016;-40
2023/01/28 11:29:38;;;;;;;32.40;3.45;;;;;;;25.96;42.87;100515.44;7311926;19;130242;-38
2023/01/28 11:32:06;;;;;;;30.08;3.05;;;;;;;25.87;42.47;100524.19;7314664;19;129910;-38
2023/01/28 11:34:33;;;;;;;40.00;4.28;;;;;;;25.82;40.87;100523.00;7311566;19;130509;-38
2023/01/28 11:37:11;;;;;;;15.23;2.55;;;;;;;25.95;41.09;100521.66;7311659;19;129150;-40
2023/01/28 11:39:36;;;;;;;37.25;3.83;;;;;;;25.84;41.98;100505.22;7314084;19;129423;-36
2023/01/28 11:42:18;;;;;;;19.73;2.53;;;;;;;25.87;42.05;100503.13;7310655;19;130112;-39
2023/01/28 11:44:45;;;;;;;39.05;4.68;;;;;;;25.75;43.09;100500.84;7311589;19;130700;-37
2023/01/28 11:47:29;;;;;;;29.92;3.63;;;;;;;25.59;43.64;100496.16;7312369;19;128928;-40